Time;durP1;ratioP1;P1;durP2;ratioP2;P2;SDS_P1;SDS_P2;PMS_P1;PMS_P2;Temp;Humidity;BMP_temperature;BMP_pressure;BME280_temperature;BME280_humidity;BME280_pressure;Samples;Min_cycle;Max_cycle;Signal;HPM_P1;HPM_P2
2022/11/01 00:02:18;;;;;;;21.45;15.10;;;12.20;46.40;;;;;;7359856;19;20018;-68
2022/11/01 00:04:51;;;;;;;20.75;14.02;;;12.20;46.50;;;;;;7359410;19;20044;-66
2022/11/01 00:07:21;;;;;;;24.70;15.93;;;12.20;46.10;;;;;;7334352;19;20446;-68
2022/11/01 00:09:50;;;;;;;22.13;14.02;;;12.20;45.60;;;;;;7357072;19;20017;-68
2022/11/01 00:12:21;;;;;;;21.25;14.98;;;12.20;45.50;;;;;;7358717;19;20018;-68
2022/11/01 00:14:50;;;;;;;22.90;13.88;;;12.10;45.50;;;;;;7383059;19;20018;-68
2022/11/01 00:17:20;;;;;;;23.70;15.45;;;12.10;45.70;;;;;;7333497;19;20045;-68
2022/11/01 00:19:53;;;;;;;19.73;14.65;;;12.10;46.10;;;;;;7355904;19;20026;-68
2022/11/01 00:22:23;;;;;;;21.02;13.82;;;12.10;46.40;;;;;;7360740;19;20494;-68
2022/11/01 00:24:53;;;;;;;22.05;14.80;;;12.10;46.50;;;;;;7359545;19;20015;-68
2022/11/01 00:27:23;;;;;;;25.50;15.23;;;12.10;46.90;;;;;;7330335;19;20018;-68
2022/11/01 00:29:53;;;;;;;27.15;14.65;;;12.10;46.60;;;;;;7378594;19;20049;-68
2022/11/01 00:32:23;;;;;;;22.23;14.85;;;12.20;46.80;;;;;;7352401;19;20015;-68
2022/11/01 00:34:55;;;;;;;28.02;15.32;;;12.20;46.30;;;;;;7362235;19;20015;-69
2022/11/01 00:37:25;;;;;;;23.00;15.20;;;12.20;46.20;;;;;;7351501;19;20006;-68
2022/11/01 00:39:55;;;;;;;24.58;15.48;;;12.20;45.90;;;;;;7359103;19;20014;-68
2022/11/01 00:42:25;;;;;;;27.27;15.60;;;12.20;45.40;;;;;;7362609;19;20007;-66
2022/11/01 00:44:54;;;;;;;27.25;15.80;;;12.20;45.80;;;;;;7385049;19;20014;-68
2022/11/01 00:47:24;;;;;;;23.38;14.23;;;12.20;45.60;;;;;;7349814;19;20474;-68
2022/11/01 00:49:56;;;;;;;24.17;15.13;;;12.30;45.30;;;;;;7361266;19;20055;-68
2022/11/01 00:52:26;;;;;;;26.70;14.95;;;12.30;44.20;;;;;;7363815;19;20010;-68
2022/11/01 00:54:56;;;;;;;22.88;14.27;;;12.30;43.30;;;;;;7359335;19;20418;-68
2022/11/01 00:57:26;;;;;;;22.27;14.40;;;12.40;43.30;;;;;;7350149;19;20014;-68
2022/11/01 00:59:56;;;;;;;20.80;14.02;;;12.40;42.20;;;;;;7382852;19;20018;-68
2022/11/01 01:02:26;;;;;;;23.05;14.18;;;12.40;42.00;;;;;;7361883;19;20010;-69
2022/11/01 01:04:58;;;;;;;23.40;13.85;;;12.40;41.10;;;;;;7362156;19;20006;-68
2022/11/01 01:07:28;;;;;;;22.73;14.32;;;12.50;40.30;;;;;;7350554;19;20605;-68
2022/11/01 01:09:58;;;;;;;23.83;13.13;;;12.50;38.80;;;;;;7358425;19;20036;-68
2022/11/01 01:12:28;;;;;;;18.95;13.10;;;12.50;38.20;;;;;;7363422;19;20035;-68
2022/11/01 01:14:57;;;;;;;23.55;14.35;;;12.50;37.40;;;;;;7383653;19;20017;-68
2022/11/01 01:17:27;;;;;;;21.13;12.82;;;12.50;37.30;;;;;;7349456;19;20014;-66
2022/11/01 01:20:05;;;;;;;20.02;14.20;;;12.60;36.00;;;;;;7359312;19;20017;-66
2022/11/01 01:22:36;;;;;;;23.30;13.27;;;12.50;36.30;;;;;;7361637;19;20550;-67
2022/11/01 01:25:07;;;;;;;22.45;14.57;;;12.50;36.70;;;;;;7359915;19;20014;-67
2022/11/01 01:27:37;;;;;;;20.92;14.07;;;12.40;37.00;;;;;;7350300;19;20014;-67
2022/11/01 01:30:08;;;;;;;24.13;14.70;;;12.40;37.30;;;;;;7380958;19;20467;-67
2022/11/01 01:32:38;;;;;;;20.33;12.77;;;12.40;37.60;;;;;;7361673;19;20017;-67
2022/11/01 01:35:11;;;;;;;18.48;13.00;;;12.40;37.80;;;;;;7361683;19;20037;-69
2022/11/01 01:37:41;;;;;;;19.23;12.85;;;12.40;37.70;;;;;;7348950;19;20023;-67
2022/11/01 01:40:11;;;;;;;19.63;12.57;;;12.40;37.90;;;;;;7359238;19;20133;-67
2022/11/01 01:42:43;;;;;;;17.55;12.77;;;12.50;37.60;;;;;;7359688;19;20422;-69
2022/11/01 01:45:25;;;;;;;16.13;12.02;;;12.40;37.10;;;;;;7360160;19;20474;-69
2022/11/01 01:47:57;;;;;;;22.70;12.75;;;12.50;37.10;;;;;;7370180;19;20496;-68
2022/11/01 01:50:36;;;;;;;22.40;12.93;;;12.50;36.60;;;;;;7357985;19;20058;-68
2022/11/01 01:53:08;;;;;;;20.80;12.32;;;12.50;36.00;;;;;;7359530;19;20010;-68
2022/11/01 01:55:43;;;;;;;21.40;12.98;;;12.50;35.50;;;;;;7359715;19;20018;-67
2022/11/01 01:58:14;;;;;;;20.30;12.00;;;12.50;35.30;;;;;;7349560;19;20015;-68
2022/11/01 02:00:45;;;;;;;21.92;11.20;;;12.50;36.00;;;;;;7358546;19;20010;-67
2022/11/01 02:03:16;;;;;;;22.35;11.50;;;12.50;35.30;;;;;;7360810;19;20014;-68
2022/11/01 02:05:52;;;;;;;19.35;11.20;;;12.50;35.00;;;;;;7381856;19;20023;-68
2022/11/01 02:08:28;;;;;;;20.05;11.93;;;12.50;35.00;;;;;;7349825;19;20006;-68
2022/11/01 02:11:00;;;;;;;22.23;11.73;;;12.60;35.80;;;;;;7357497;19;20025;-68
2022/11/01 02:13:31;;;;;;;21.05;11.63;;;12.60;35.10;;;;;;7360744;19;20035;-68
2022/11/01 02:16:19;;;;;;;16.75;10.93;;;12.60;35.00;;;;;;7358477;19;20110;-68
2022/11/01 02:18:59;;;;;;;20.13;10.68;;;12.60;35.00;;;;;;7355833;19;20466;-68
2022/11/01 02:21:50;;;;;;;20.10;11.27;;;12.60;35.00;;;;;;7358502;19;20076;-68
2022/11/01 02:24:51;;;;;;;17.08;11.15;;;12.70;34.20;;;;;;7360382;19;20010;-68
2022/11/01 02:27:26;;;;;;;18.63;11.23;;;12.70;33.90;;;;;;7349571;19;20757;-68
2022/11/01 02:30:12;;;;;;;20.27;11.02;;;12.70;33.90;;;;;;7379672;19;20034;-68
2022/11/01 02:32:53;;;;;;;21.98;11.07;;;12.60;33.90;;;;;;7360547;19;20015;-68
2022/11/01 02:35:27;;;;;;;19.40;12.02;;;12.60;33.50;;;;;;7363279;19;20034;-68
2022/11/01 02:38:02;;;;;;;27.13;11.95;;;12.60;34.10;;;;;;7352622;19;20006;-67
2022/11/01 02:40:42;;;;;;;22.52;11.43;;;12.60;34.60;;;;;;7364652;19;20449;-68
2022/11/01 02:43:18;;;;;;;18.88;11.50;;;12.60;34.20;;;;;;7367622;19;20488;-68
2022/11/01 02:45:50;;;;;;;17.15;11.10;;;12.60;35.00;;;;;;7365803;19;20007;-67
2022/11/01 02:48:25;;;;;;;18.67;10.57;;;12.60;35.00;;;;;;7356773;19;20033;-68
2022/11/01 02:50:58;;;;;;;16.73;10.98;;;12.60;35.00;;;;;;7386059;19;20784;-67
2022/11/01 02:53:29;;;;;;;21.75;10.95;;;12.70;35.50;;;;;;7365255;19;20018;-68
2022/11/01 02:55:59;;;;;;;19.02;11.57;;;12.70;34.70;;;;;;7363220;19;20014;-68
2022/11/01 02:58:31;;;;;;;21.63;10.90;;;12.70;34.40;;;;;;7356803;19;20018;-67
2022/11/01 03:01:00;;;;;;;15.02;10.77;;;12.70;33.70;;;;;;7363531;19;20502;-68
2022/11/01 03:03:35;;;;;;;17.00;10.55;;;12.70;33.80;;;;;;7366972;19;20037;-68
2022/11/01 03:06:13;;;;;;;17.45;10.48;;;12.80;33.70;;;;;;7385576;19;20026;-67
2022/11/01 03:08:46;;;;;;;17.88;9.82;;;12.80;32.50;;;;;;7360015;19;20010;-67
2022/11/01 03:11:19;;;;;;;13.98;8.93;;;12.90;31.50;;;;;;7363482;19;20014;-67
2022/11/01 03:14:00;;;;;;;18.52;9.88;;;12.90;29.80;;;;;;7364531;19;20025;-68
2022/11/01 03:16:34;;;;;;;19.02;10.27;;;12.90;29.70;;;;;;7357879;19;20010;-67
2022/11/01 03:19:14;;;;;;;17.63;9.38;;;13.00;29.30;;;;;;7361765;19;20743;-67
2022/11/01 03:21:49;;;;;;;15.50;9.38;;;13.00;29.00;;;;;;7363913;19;20034;-68
2022/11/01 03:24:22;;;;;;;;;;;13.00;27.90;;;;;;7366771;19;20006;-68
2022/11/01 03:26:57;;;;;;;18.42;9.77;;;13.00;28.40;;;;;;7377459;19;19938;-67
2022/11/01 03:29:29;;;;;;;13.52;8.95;;;13.00;28.60;;;;;;7362955;19;20014;-68
2022/11/01 03:32:02;;;;;;;16.98;9.35;;;13.10;27.60;;;;;;7364239;19;20014;-68
2022/11/01 03:34:37;;;;;;;15.43;8.95;;;13.00;27.90;;;;;;7364999;19;20370;-68
2022/11/01 03:37:12;;;;;;;14.25;8.77;;;13.00;27.70;;;;;;7354187;19;20061;-67
2022/11/01 03:39:43;;;;;;;;;;;13.10;27.60;;;;;;7363829;19;20017;-68
2022/11/01 03:42:17;;;;;;;13.73;8.68;;;13.10;26.80;;;;;;7364873;19;19915;-68
2022/11/01 03:44:50;;;;;;;12.67;9.00;;;13.20;25.80;;;;;;7386684;19;20060;-68
2022/11/01 03:47:20;;;;;;;18.30;9.85;;;13.20;24.80;;;;;;7351236;19;20013;-68
2022/11/01 03:50:13;;;;;;;14.23;9.38;;;13.20;24.80;;;;;;7362808;19;20480;-68
2022/11/01 03:52:43;;;;;;;15.90;9.35;;;13.20;24.30;;;;;;7363612;19;20031;-68
2022/11/01 03:55:22;;;;;;;11.52;8.55;;;13.30;23.20;;;;;;7363952;19;20546;-68
2022/11/01 03:57:54;;;;;;;20.33;8.75;;;13.30;23.50;;;;;;7351804;19;20007;-67
2022/11/01 04:00:26;;;;;;;16.70;9.20;;;13.20;24.20;;;;;;7361279;19;20489;-68
2022/11/01 04:02:56;;;;;;;12.98;9.07;;;13.20;24.20;;;;;;7385776;19;20025;-68
2022/11/01 04:05:32;;;;;;;12.88;7.88;;;13.30;24.30;;;;;;7361775;19;20089;-68
2022/11/01 04:08:02;;;;;;;13.02;8.70;;;13.30;24.30;;;;;;7352715;19;20010;-68
2022/11/01 04:10:32;;;;;;;14.45;8.65;;;13.30;23.60;;;;;;7363117;19;20021;-67
2022/11/01 04:13:02;;;;;;;13.70;8.65;;;13.30;23.50;;;;;;7364225;19;20010;-68
2022/11/01 04:21:04;;;;;;;14.32;8.85;;;13.30;23.30;;;;;;7383801;19;20455;-68
2022/11/01 04:23:34;;;;;;;17.10;8.15;;;13.30;23.80;;;;;;7363762;19;20409;-68
2022/11/01 04:26:06;;;;;;;18.70;8.13;;;13.30;24.30;;;;;;7360586;19;20695;-68
2022/11/01 04:28:35;;;;;;;13.50;8.35;;;13.30;24.30;;;;;;7355740;19;20487;-68
2022/11/01 04:31:06;;;;;;;19.55;8.70;;;13.30;24.30;;;;;;7362516;19;20054;-68
2022/11/01 04:33:35;;;;;;;15.60;8.80;;;13.40;24.40;;;;;;7363466;19;20010;-68
2022/11/01 04:36:09;;;;;;;13.85;8.35;;;13.40;23.10;;;;;;7381743;19;20025;-68
2022/11/01 04:38:39;;;;;;;15.32;7.63;;;13.50;22.80;;;;;;7355668;19;20034;-68
2022/11/01 04:41:09;;;;;;;15.65;8.10;;;13.50;22.00;;;;;;7360858;19;20006;-68
2022/11/01 04:43:39;;;;;;;14.45;7.53;;;13.60;20.90;;;;;;7362212;19;20029;-68
2022/11/01 04:46:09;;;;;;;16.42;8.38;;;13.50;21.00;;;;;;7358918;19;20013;-67
2022/11/01 04:48:39;;;;;;;13.00;8.75;;;13.50;21.60;;;;;;7355885;19;20011;-68
2022/11/01 04:51:11;;;;;;;13.85;8.63;;;13.40;21.80;;;;;;7363688;19;20018;-68
2022/11/01 04:53:41;;;;;;;14.30;8.57;;;13.40;22.60;;;;;;7384550;19;20011;-68
2022/11/01 04:56:14;;;;;;;18.08;8.98;;;13.40;23.30;;;;;;7357708;19;20458;-68
2022/11/01 04:58:44;;;;;;;13.10;7.80;;;13.40;23.60;;;;;;7353424;19;20011;-68
2022/11/01 05:01:16;;;;;;;16.52;9.18;;;13.40;23.00;;;;;;7361800;19;20018;-68
2022/11/01 05:03:46;;;;;;;13.65;8.85;;;13.30;23.60;;;;;;7362212;19;20014;-68
2022/11/01 05:06:18;;;;;;;15.73;9.98;;;12.90;27.50;;;;;;7356066;19;20014;-68
2022/11/01 05:08:48;;;;;;;16.10;10.18;;;12.70;30.00;;;;;;7379107;19;20079;-68
2022/11/01 05:11:24;;;;;;;16.30;10.10;;;12.70;32.00;;;;;;7359986;19;20015;-68
2022/11/01 05:13:53;;;;;;;17.83;11.00;;;12.60;32.60;;;;;;7361573;19;20588;-68
2022/11/01 05:16:23;;;;;;;17.20;10.32;;;12.50;35.00;;;;;;7354979;19;20038;-68
2022/11/01 05:18:53;;;;;;;16.52;10.55;;;12.50;35.00;;;;;;7357407;19;20047;-68
2022/11/01 05:21:25;;;;;;;15.52;10.25;;;12.50;36.10;;;;;;7359849;19;20013;-68
2022/11/01 05:23:55;;;;;;;15.93;9.98;;;12.50;37.00;;;;;;7383830;19;20014;-67
2022/11/01 05:26:26;;;;;;;18.77;10.10;;;12.50;36.90;;;;;;7353680;19;20014;-67
2022/11/01 05:28:56;;;;;;;16.20;10.32;;;12.60;37.80;;;;;;7357598;19;20091;-67
2022/11/01 05:31:26;;;;;;;14.73;9.07;;;12.60;38.40;;;;;;7360963;19;20644;-67
2022/11/01 05:33:55;;;;;;;17.40;9.65;;;12.70;39.10;;;;;;7361249;19;20015;-68
2022/11/01 05:36:28;;;;;;;14.85;9.68;;;12.70;38.60;;;;;;7351895;19;20015;-67
2022/11/01 05:38:58;;;;;;;23.30;9.75;;;12.70;38.60;;;;;;7378630;19;20018;-67
2022/11/01 05:41:28;;;;;;;16.77;8.68;;;12.70;39.10;;;;;;7359548;19;20493;-67
2022/11/01 05:43:58;;;;;;;13.25;8.68;;;12.70;39.50;;;;;;7361080;19;20011;-68
2022/11/01 05:46:28;;;;;;;15.77;9.40;;;12.70;39.80;;;;;;7353794;19;20046;-67
2022/11/01 05:48:58;;;;;;;16.05;10.98;;;12.80;40.70;;;;;;7355955;19;20014;-67
2022/11/01 05:51:30;;;;;;;13.60;11.20;;;12.80;40.40;;;;;;7360048;19;20382;-67
2022/11/01 05:54:00;;;;;;;17.52;11.02;;;12.70;40.70;;;;;;7382720;19;20525;-67
2022/11/01 05:56:30;;;;;;;18.70;10.75;;;12.70;41.40;;;;;;7352726;19;20011;-68
2022/11/01 05:59:00;;;;;;;19.20;10.52;;;12.70;41.70;;;;;;7356046;19;20471;-67
2022/11/01 06:01:30;;;;;;;17.92;10.10;;;12.70;42.50;;;;;;7358814;19;20021;-67
2022/11/01 06:04:00;;;;;;;15.60;10.63;;;12.70;43.00;;;;;;7360031;19;20010;-67
2022/11/01 06:06:33;;;;;;;13.18;9.43;;;12.70;43.60;;;;;;7353725;19;20011;-68
2022/11/01 06:09:03;;;;;;;18.23;8.95;;;12.80;43.70;;;;;;7379230;19;20025;-68
2022/11/01 06:11:33;;;;;;;17.85;10.02;;;12.80;43.70;;;;;;7366267;19;20014;-68
2022/11/01 06:14:13;;;;;;;19.55;10.35;;;12.80;43.70;;;;;;7368129;19;20067;-67
2022/11/01 06:16:43;;;;;;;16.95;9.50;;;12.80;43.70;;;;;;7358649;19;20007;-68
2022/11/01 06:19:13;;;;;;;15.40;9.43;;;12.80;44.00;;;;;;7360304;19;20374;-67
2022/11/01 06:21:45;;;;;;;14.02;9.52;;;12.80;44.90;;;;;;7366629;19;20010;-67
2022/11/01 06:24:15;;;;;;;16.17;9.77;;;12.80;45.40;;;;;;7367848;19;20486;-68
2022/11/01 06:26:45;;;;;;;17.25;9.38;;;12.80;45.90;;;;;;7379809;19;20486;-68
2022/11/01 06:29:16;;;;;;;14.85;9.90;;;12.80;46.70;;;;;;7363393;19;20014;-68
2022/11/01 06:31:46;;;;;;;17.73;9.15;;;12.80;47.80;;;;;;7364371;19;20021;-68
2022/11/01 06:34:16;;;;;;;11.38;7.80;;;12.90;48.00;;;;;;7366372;19;20010;-68
2022/11/01 06:36:48;;;;;;;12.60;7.30;;;12.90;48.60;;;;;;7359538;19;20037;-68
2022/11/01 06:39:18;;;;;;;12.60;6.88;;;13.00;49.10;;;;;;7362772;19;20481;-68
2022/11/01 06:41:48;;;;;;;11.15;5.90;;;13.10;49.00;;;;;;7387011;19;20018;-68
2022/11/01 06:44:18;;;;;;;12.82;5.57;;;13.20;48.90;;;;;;7366448;19;20375;-68
2022/11/01 06:46:47;;;;;;;7.97;5.65;;;13.30;48.90;;;;;;7357209;19;20006;-68
2022/11/01 06:49:18;;;;;;;8.13;5.03;;;13.30;48.30;;;;;;7362044;19;20014;-68
2022/11/01 06:51:50;;;;;;;8.48;4.57;;;13.40;47.60;;;;;;7366284;19;20017;-68
2022/11/01 06:54:20;;;;;;;4.97;4.47;;;13.40;47.00;;;;;;7366738;19;20018;-68
2022/11/01 06:56:50;;;;;;;10.10;4.95;;;13.50;46.50;;;;;;7378666;19;20014;-69
2022/11/01 06:59:20;;;;;;;6.72;4.65;;;13.50;46.10;;;;;;7363222;19;20007;-66
2022/11/01 07:01:50;;;;;;;8.32;4.90;;;13.50;46.80;;;;;;7364409;19;20383;-68
2022/11/01 07:04:20;;;;;;;8.45;4.45;;;13.50;47.90;;;;;;7365238;19;20032;-68
2022/11/01 07:06:53;;;;;;;6.50;4.03;;;13.50;48.40;;;;;;7360157;19;20006;-68
2022/11/01 07:09:23;;;;;;;5.72;3.35;;;13.50;48.50;;;;;;7362944;19;20109;-68
2022/11/01 07:11:52;;;;;;;5.85;3.10;;;13.60;48.60;;;;;;7386284;19;20022;-68
2022/11/01 07:14:22;;;;;;;5.50;2.70;;;13.70;47.70;;;;;;7366755;19;20014;-68
2022/11/01 07:16:52;;;;;;;6.72;2.85;;;13.90;45.30;;;;;;7357495;19;20010;-67
2022/11/01 07:19:22;;;;;;;9.23;3.17;;;13.90;43.20;;;;;;7361274;19;20030;-67
2022/11/01 07:21:57;;;;;;;7.05;3.40;;;14.00;42.00;;;;;;7362461;19;20011;-68
2022/11/01 07:24:27;;;;;;;5.82;3.67;;;14.00;40.60;;;;;;7366240;19;20016;-68
2022/11/01 07:26:57;;;;;;;6.63;3.33;;;14.00;40.10;;;;;;7378633;19;20022;-68
2022/11/01 07:29:27;;;;;;;6.95;3.70;;;14.00;39.60;;;;;;7361730;19;20007;-68
2022/11/01 07:31:57;;;;;;;7.40;3.50;;;14.10;38.90;;;;;;7363147;19;20017;-68
2022/11/01 07:34:26;;;;;;;6.07;3.65;;;14.10;39.10;;;;;;7365334;19;20490;-68
2022/11/01 07:36:59;;;;;;;4.57;3.05;;;14.20;39.10;;;;;;7358137;19;20487;-68
2022/11/01 07:39:29;;;;;;;5.38;2.80;;;14.20;38.90;;;;;;7360955;19;20333;-68
2022/11/01 07:42:00;;;;;;;6.80;3.10;;;14.20;39.30;;;;;;7385483;19;20025;-68
2022/11/01 07:44:30;;;;;;;7.65;3.03;;;14.30;38.70;;;;;;7365573;19;20011;-68
2022/11/01 07:46:59;;;;;;;8.88;2.70;;;14.40;38.60;;;;;;7356056;19;20379;-68
2022/11/01 07:49:29;;;;;;;2.97;2.22;;;14.40;38.10;;;;;;7360956;19;20018;-68
2022/11/01 07:52:03;;;;;;;2.90;2.00;;;14.50;38.30;;;;;;7363579;19;20014;-68
2022/11/01 07:54:32;;;;;;;5.17;2.03;;;14.50;38.20;;;;;;7365389;19;21646;-68
2022/11/01 07:57:02;;;;;;;5.20;1.63;;;14.60;36.80;;;;;;7377894;19;20286;-68
2022/11/01 07:59:32;;;;;;;2.28;1.33;;;14.70;36.30;;;;;;7360580;19;20038;-68
2022/11/01 08:02:02;;;;;;;2.10;1.50;;;14.80;34.70;;;;;;7362717;19;20011;-68
2022/11/01 08:04:36;;;;;;;1.92;1.00;;;14.80;33.90;;;;;;7364115;19;20043;-68
2022/11/01 08:07:09;;;;;;;2.47;1.13;;;14.90;32.90;;;;;;7356031;19;20050;-68
2022/11/01 08:09:38;;;;;;;1.67;1.20;;;15.10;29.80;;;;;;7360231;19;20010;-68
2022/11/01 08:12:09;;;;;;;1.00;0.70;;;15.20;27.40;;;;;;7369701;19;20022;-68
2022/11/01 08:14:38;;;;;;;1.05;0.85;;;15.30;25.70;;;;;;7385976;19;20457;-68
2022/11/01 08:17:09;;;;;;;0.90;0.60;;;15.30;25.20;;;;;;7354133;19;20018;-68
2022/11/01 08:19:39;;;;;;;1.65;0.77;;;15.40;24.10;;;;;;7359871;19;20015;-68
2022/11/01 08:22:11;;;;;;;1.98;0.75;;;15.50;21.80;;;;;;7362165;19;20489;-69
2022/11/01 08:24:41;;;;;;;0.90;0.60;;;15.60;20.80;;;;;;7362372;19;20010;-69
2022/11/01 08:27:11;;;;;;;1.08;0.70;;;15.70;20.30;;;;;;7353965;19;20077;-69
2022/11/01 08:29:41;;;;;;;1.02;0.70;;;15.70;20.50;;;;;;7380925;19;20131;-69
2022/11/01 08:32:11;;;;;;;1.00;0.80;;;15.70;19.90;;;;;;7360581;19;20568;-69
2022/11/01 08:34:41;;;;;;;1.80;0.90;;;15.80;20.50;;;;;;7363299;19;20011;-69
2022/11/01 08:37:13;;;;;;;1.13;0.73;;;15.80;21.20;;;;;;7354540;19;20010;-69
2022/11/01 08:39:43;;;;;;;1.58;0.73;;;15.80;20.40;;;;;;7359079;19;20010;-69
2022/11/01 08:42:13;;;;;;;0.98;0.80;;;15.90;19.70;;;;;;7361005;19;20363;-70
2022/11/01 08:44:42;;;;;;;2.05;1.00;;;16.00;18.10;;;;;;7384189;19;20006;-68
2022/11/01 08:47:12;;;;;;;2.33;0.90;;;16.10;13.40;;;;;;7352768;19;20418;-68
2022/11/01 08:49:42;;;;;;;2.08;0.80;;;16.10;12.90;;;;;;7358526;19;20490;-69
2022/11/01 08:52:14;;;;;;;1.67;0.75;;;16.10;10.70;;;;;;7362277;19;20021;-66
2022/11/01 08:54:44;;;;;;;2.63;1.02;;;16.10;8.90;;;;;;7361541;19;20043;-68
2022/11/01 08:57:14;;;;;;;3.92;0.90;;;16.20;5.30;;;;;;7353048;19;20015;-68
2022/11/01 08:59:44;;;;;;;1.48;0.80;;;16.20;4.50;;;;;;7379768;19;20443;-68
2022/11/01 09:02:14;;;;;;;1.95;0.80;;;16.20;2.60;;;;;;7358856;19;20387;-68
2022/11/01 09:04:44;;;;;;;1.92;0.65;;;16.20;2.40;;;;;;7361814;19;20543;-68
2022/11/01 09:07:16;;;;;;;2.47;0.88;;;16.20;1.00;;;;;;7353153;19;20014;-68
2022/11/01 09:09:46;;;;;;;1.55;0.60;;;16.20;1.00;;;;;;7354665;19;20834;-68
2022/11/01 09:12:16;;;;;;;2.63;0.70;;;16.20;1.00;;;;;;7359936;19;20080;-68
2022/11/01 09:14:53;;;;;;;2.75;0.50;;;16.20;1.00;;;;;;7382438;19;20045;-67
2022/11/01 09:17:22;;;;;;;1.92;1.10;;;16.20;1.00;;;;;;7352040;19;20300;-67
2022/11/01 09:19:52;;;;;;;2.92;0.95;;;16.30;1.00;;;;;;7357085;19;20480;-67
2022/11/01 09:22:25;;;;;;;2.33;1.17;;;16.30;1.00;;;;;;7360562;19;20018;-68
2022/11/01 09:24:57;;;;;;;2.20;0.70;;;16.30;1.00;;;;;;7361072;19;20014;-68
2022/11/01 09:27:27;;;;;;;3.78;0.68;;;16.40;1.00;;;;;;7353078;19;20020;-68
2022/11/01 09:29:57;;;;;;;2.75;0.75;;;16.50;1.00;;;;;;7379595;19;20006;-68
2022/11/01 09:32:30;;;;;;;2.15;0.65;;;16.50;1.00;;;;;;7359972;19;20006;-69
2022/11/01 09:34:59;;;;;;;2.60;0.95;;;16.60;1.00;;;;;;7360763;19;20031;-68
2022/11/01 09:37:32;;;;;;;2.08;0.80;;;16.80;1.00;;;;;;7354155;19;20028;-68
2022/11/01 09:40:02;;;;;;;1.60;0.90;;;17.20;1.00;;;;;;7356186;19;20014;-68
2022/11/01 09:42:34;;;;;;;1.35;0.60;;;17.40;1.00;;;;;;7359274;19;20018;-66
2022/11/01 09:45:09;;;;;;;1.77;0.40;;;17.40;1.00;;;;;;7380154;19;20014;-69
2022/11/01 09:47:40;;;;;;;0.70;0.68;;;17.50;1.00;;;;;;7352100;19;20011;-69
2022/11/01 09:50:21;;;;;;;1.20;0.50;;;17.60;1.00;;;;;;7357171;19;20522;-69
2022/11/01 09:52:55;;;;;;;2.58;0.70;;;17.90;1.00;;;;;;7360415;19;20003;-69
2022/11/01 09:55:35;;;;;;;1.10;0.77;;;18.20;1.00;;;;;;7359146;19;20038;-69
2022/11/01 09:58:10;;;;;;;1.55;0.75;;;18.40;1.00;;;;;;7351266;19;20006;-69
2022/11/01 10:00:46;;;;;;;2.35;0.73;;;18.30;1.00;;;;;;7357836;19;20025;-69
2022/11/01 10:03:32;;;;;;;2.08;0.70;;;18.50;1.00;;;;;;7360934;19;20046;-68
2022/11/01 10:06:08;;;;;;;4.20;0.90;;;18.60;1.00;;;;;;7380083;19;20022;-68
2022/11/01 10:08:55;;;;;;;1.73;0.70;;;18.60;1.00;;;;;;7353756;19;20030;-68
2022/11/01 10:11:39;;;;;;;3.75;0.80;;;18.40;1.00;;;;;;7358615;19;20014;-68
2022/11/01 10:14:19;;;;;;;1.25;0.73;;;18.40;1.00;;;;;;7358859;19;20015;-67
2022/11/01 10:16:54;;;;;;;2.00;0.90;;;18.30;1.00;;;;;;7348260;19;20019;-68
2022/11/01 10:19:29;;;;;;;2.10;1.05;;;18.40;1.00;;;;;;7356694;19;20038;-68
2022/11/01 10:22:04;;;;;;;2.00;1.08;;;18.30;1.00;;;;;;7358843;19;20006;-68
2022/11/01 10:24:41;;;;;;;4.15;1.30;;;18.30;1.00;;;;;;7358986;19;20529;-68
2022/11/01 10:27:19;;;;;;;4.22;1.20;;;18.40;1.00;;;;;;7349328;19;20481;-69
2022/11/01 10:29:56;;;;;;;2.13;1.00;;;18.30;1.00;;;;;;7377366;19;20011;-69
2022/11/01 10:32:34;;;;;;;3.55;0.85;;;18.20;1.00;;;;;;7357962;19;20011;-69
2022/11/01 10:35:11;;;;;;;1.67;0.82;;;18.10;1.00;;;;;;7358918;19;20534;-69
2022/11/01 10:37:46;;;;;;;2.90;1.23;;;18.30;1.00;;;;;;7350164;19;20003;-69
2022/11/01 10:40:43;;;;;;;2.85;1.13;;;18.20;1.00;;;;;;7357389;19;20040;-68
2022/11/01 10:43:16;;;;;;;4.55;1.40;;;18.00;1.00;;;;;;7356307;19;20025;-69
2022/11/01 10:45:48;;;;;;;4.35;0.90;;;18.10;1.00;;;;;;7359017;19;20010;-69
2022/11/01 10:48:28;;;;;;;2.25;1.02;;;18.00;1.00;;;;;;7349259;19;20035;-69
2022/11/01 10:51:02;;;;;;;3.78;1.20;;;18.00;1.00;;;;;;7379357;19;20014;-68
2022/11/01 10:53:37;;;;;;;2.47;1.13;;;18.00;1.00;;;;;;7357784;19;20011;-68
2022/11/01 10:56:15;;;;;;;6.38;1.35;;;18.00;1.00;;;;;;7354808;19;20017;-68
2022/11/01 10:58:59;;;;;;;2.65;0.95;;;18.10;1.00;;;;;;7360750;19;20342;-69
2022/11/01 11:01:33;;;;;;;9.18;1.63;;;18.20;1.00;;;;;;7364486;19;20010;-69
2022/11/01 11:04:06;;;;;;;4.75;1.38;;;18.10;1.00;;;;;;7366160;19;20102;-69
2022/11/01 11:06:38;;;;;;;2.72;1.30;;;18.10;1.00;;;;;;7359583;19;20010;-69
2022/11/01 11:09:08;;;;;;;3.13;1.23;;;18.20;1.00;;;;;;7372225;19;20590;-68
2022/11/01 11:11:43;;;;;;;6.72;1.38;;;17.90;1.00;;;;;;7387161;19;20010;-68
2022/11/01 11:14:13;;;;;;;3.15;1.20;;;18.10;1.00;;;;;;7364880;19;20082;-68
2022/11/01 11:16:47;;;;;;;2.90;1.25;;;18.20;1.00;;;;;;7355816;19;20423;-66
2022/11/01 11:19:24;;;;;;;2.15;1.10;;;18.20;1.00;;;;;;7361874;19;20006;-66
2022/11/01 11:21:55;;;;;;;4.82;1.40;;;18.10;1.00;;;;;;7363546;19;20022;-66
2022/11/01 11:24:27;;;;;;;5.57;1.20;;;18.20;1.00;;;;;;7364846;19;20021;-68
2022/11/01 11:27:00;;;;;;;4.45;1.20;;;18.20;1.00;;;;;;7377667;19;20006;-67
2022/11/01 11:29:37;;;;;;;2.33;1.30;;;18.20;1.00;;;;;;7359536;19;20034;-67
2022/11/01 11:32:15;;;;;;;5.03;1.20;;;18.20;1.00;;;;;;7363798;19;20018;-67
2022/11/01 11:34:51;;;;;;;3.30;1.10;;;18.10;1.00;;;;;;7365516;19;20358;-68
2022/11/01 11:37:24;;;;;;;5.32;1.30;;;18.00;1.00;;;;;;7356213;19;20006;-67
2022/11/01 11:40:20;;;;;;;5.47;1.25;;;18.00;1.00;;;;;;7359257;19;20482;-67
2022/11/01 11:42:54;;;;;;;4.75;1.05;;;17.90;1.00;;;;;;7362516;19;20011;-67
2022/11/01 11:45:28;;;;;;;3.40;1.30;;;18.00;1.00;;;;;;7363900;19;20014;-67
2022/11/01 11:47:58;;;;;;;2.85;1.27;;;18.00;1.00;;;;;;7377252;19;20010;-67
2022/11/01 11:50:39;;;;;;;4.65;1.67;;;18.10;1.00;;;;;;7361165;19;20497;-67
2022/11/01 11:53:19;;;;;;;3.47;1.70;;;17.80;1.00;;;;;;7362148;19;20003;-67
2022/11/01 11:55:50;;;;;;;4.47;1.30;;;17.60;1.00;;;;;;7363738;19;20022;-67
2022/11/01 11:58:28;;;;;;;5.55;1.40;;;17.20;1.00;;;;;;7355827;19;20021;-67
2022/11/01 12:01:02;;;;;;;3.08;1.42;;;16.70;1.00;;;;;;7363632;19;20011;-66
2022/11/01 12:03:38;;;;;;;3.45;1.33;;;16.50;1.00;;;;;;7363987;19;20049;-67
2022/11/01 12:06:10;;;;;;;4.15;1.35;;;16.50;1.00;;;;;;7370452;19;20064;-67
2022/11/01 12:08:47;;;;;;;4.10;1.50;;;16.40;1.00;;;;;;7381257;19;20030;-67
2022/11/01 12:11:18;;;;;;;4.45;1.30;;;16.40;1.00;;;;;;7366348;19;20006;-67
2022/11/01 12:14:04;;;;;;;7.18;1.80;;;16.40;1.00;;;;;;7363999;19;20038;-67
2022/11/01 12:16:42;;;;;;;3.53;1.35;;;16.40;1.00;;;;;;7363017;19;20150;-68
2022/11/01 12:19:26;;;;;;;5.13;1.63;;;16.10;1.00;;;;;;7363300;19;20006;-68
2022/11/01 12:21:57;;;;;;;3.90;1.48;;;15.90;1.00;;;;;;7362948;19;20018;-69
2022/11/01 12:24:29;;;;;;;12.73;1.80;;;16.10;1.00;;;;;;7363682;19;20489;-66
2022/11/01 12:27:05;;;;;;;6.70;1.35;;;16.00;1.00;;;;;;7382612;19;20110;-69
2022/11/01 12:29:43;;;;;;;6.50;1.67;;;16.10;1.00;;;;;;7362703;19;20014;-66
2022/11/01 12:32:19;;;;;;;3.55;1.42;;;16.00;1.00;;;;;;7362398;19;20347;-67
2022/11/01 12:34:51;;;;;;;4.22;1.50;;;16.20;1.00;;;;;;7363226;19;20007;-67
2022/11/01 12:37:26;;;;;;;6.55;1.95;;;16.30;1.00;;;;;;7362176;19;20029;-67
2022/11/01 12:39:59;;;;;;;3.05;1.40;;;16.30;1.00;;;;;;7361828;19;20018;-69
2022/11/01 12:42:31;;;;;;;4.88;1.55;;;16.30;1.00;;;;;;7364777;19;20025;-67
2022/11/01 12:45:14;;;;;;;10.25;2.05;;;16.20;1.00;;;;;;7383636;19;20084;-67
2022/11/01 12:47:48;;;;;;;4.45;1.50;;;16.20;1.00;;;;;;7359819;19;20018;-67
2022/11/01 12:50:22;;;;;;;7.18;1.83;;;16.20;1.00;;;;;;7361333;19;20022;-69
2022/11/01 12:52:57;;;;;;;6.05;1.58;;;16.20;1.00;;;;;;7362649;19;20011;-66
2022/11/01 12:55:32;;;;;;;3.72;1.50;;;16.20;1.00;;;;;;7362391;19;20015;-67
2022/11/01 12:58:02;;;;;;;4.28;1.52;;;16.30;1.00;;;;;;7360222;19;20019;-67
2022/11/01 13:00:52;;;;;;;3.97;1.50;;;16.70;1.00;;;;;;7361059;19;20537;-66
2022/11/01 13:03:31;;;;;;;4.57;1.85;;;16.60;1.00;;;;;;7360689;19;20086;-69
2022/11/01 13:06:10;;;;;;;3.72;1.50;;;16.50;1.00;;;;;;7383958;19;20396;-66
2022/11/01 13:08:47;;;;;;;3.80;1.80;;;16.40;1.00;;;;;;7362929;19;20010;-67
2022/11/01 13:11:24;;;;;;;4.22;1.20;;;16.50;1.00;;;;;;7364431;19;20011;-68
2022/11/01 13:14:04;;;;;;;8.15;1.55;;;16.40;1.00;;;;;;7361380;19;20107;-68
2022/11/01 13:16:43;;;;;;;4.25;1.52;;;16.40;1.00;;;;;;7359384;19;20469;-66
2022/11/01 13:19:22;;;;;;;5.90;1.27;;;16.50;1.00;;;;;;7358828;19;20019;-67